»·PEaware :: WAT306 KSKX-KTUS

WAT306 :: KSKX-KTUS

FLIGHT INFORMATION

Flight Status: Arrived
Operator:
Walker Air Transport
More flights by this operator :: More flights under this callsign
Pilot: Ethan S. (29221)
Aircraft: SOCATA TBM-900
(TBM9)
More flights by this aircraft type
Origin: KSKX Taos Regl
United States
Destination: KTUS Tucson Intl
United States
More flights between these airports :: More routes between these airports
Route: +ABQ ABQ/229/76 COLAN
File this flight plan on PilotEdge
Remarks:
Altitude:
(Current/Filed)
30,000ft
Speed:
(Current/Filed)
320kts
Departed: 30-Aug-20 07:44 PM
Arrived: 30-Aug-20 09:12 PM
Distance/Time
Traveled:
369nm/1:28
Distance/Time
To Go:
Arrived

Flight Plot

Page will automatically refresh every two minutes.

Flight plan parsing failed; only flown route is shown


Map Options




Map Legend


Flown Route
Filed Route
Departure Airport
Arrival Airport
Navaid (VOR, NDB)
Fix

Horizontal Profiles

Position Reports

Time Latitude Longitude Heading Altitude Ground
Speed
30-Aug-20 19:35 36.459865 -105.672056 234 7091ft 0kts
30-Aug-20 19:36 36.459865 -105.672056 234 7091ft 0kts
30-Aug-20 19:37 36.459865 -105.672056 234 7091ft 0kts
30-Aug-20 19:38 36.459864 -105.672056 234 7091ft 0kts
30-Aug-20 19:39 36.459511 -105.672366 211 7091ft 7kts
30-Aug-20 19:40 36.457329 -105.675524 235 7091ft 19kts
30-Aug-20 19:41 36.455367 -105.679146 235 7091ft 7kts
30-Aug-20 19:42 36.456418 -105.683111 227 7091ft 16kts
30-Aug-20 19:43 36.441158 -105.666783 137 7455ft 129kts
30-Aug-20 19:44 36.405996 -105.679076 212 9425ft 140kts
30-Aug-20 19:45 36.372149 -105.707186 217 11248ft 149kts
30-Aug-20 19:46 36.335878 -105.737985 219 13326ft 155kts
30-Aug-20 19:47 36.298105 -105.770132 220 15209ft 164kts
30-Aug-20 19:48 36.260759 -105.801854 223 17424ft 161kts
30-Aug-20 19:49 36.221790 -105.834906 224 19371ft 160kts
30-Aug-20 19:50 36.184031 -105.866976 225 21181ft 164kts
30-Aug-20 19:51 36.145867 -105.899285 226 23305ft 162kts
30-Aug-20 19:52 36.107765 -105.931530 227 25194ft 163kts
30-Aug-20 19:53 36.068874 -105.964378 228 27280ft 164kts
30-Aug-20 19:54 36.030406 -105.996854 228 29119ft 164kts
30-Aug-20 19:55 35.989751 -106.031336 227 30206ft 199kts
30-Aug-20 19:56 35.936177 -106.076335 224 30180ft 246kts
30-Aug-20 19:57 35.875769 -106.126992 224 30169ft 264kts
30-Aug-20 19:58 35.812387 -106.180102 223 30156ft 271kts
30-Aug-20 19:59 35.747292 -106.234492 224 30152ft 274kts
30-Aug-20 20:00 35.680812 -106.290064 224 30156ft 275kts
30-Aug-20 20:01 35.613320 -106.346308 224 30135ft 277kts
30-Aug-20 20:02 35.546581 -106.401804 224 30090ft 278kts
30-Aug-20 20:03 35.480217 -106.456877 224 30056ft 278kts
30-Aug-20 20:04 35.413578 -106.512069 224 30032ft 277kts
30-Aug-20 20:05 35.347334 -106.566824 224 30002ft 277kts
30-Aug-20 20:06 35.280715 -106.621777 224 30011ft 276kts
30-Aug-20 20:07 35.213040 -106.677487 224 30035ft 277kts
30-Aug-20 20:08 35.145137 -106.733270 224 30045ft 279kts
30-Aug-20 20:09 35.076113 -106.789855 224 30055ft 279kts
30-Aug-20 20:10 35.016180 -106.855676 237 30052ft 267kts
30-Aug-20 20:11 34.963629 -106.930034 236 30046ft 271kts
30-Aug-20 20:12 34.910280 -107.005468 236 30049ft 276kts
30-Aug-20 20:14 34.855872 -107.082230 235 30054ft 280kts
30-Aug-20 20:15 34.800341 -107.160404 235 30053ft 282kts
30-Aug-20 20:16 34.744489 -107.238863 235 30052ft 283kts
30-Aug-20 20:17 34.689096 -107.316505 235 30050ft 283kts
30-Aug-20 20:18 34.633561 -107.394173 235 30065ft 283kts
30-Aug-20 20:19 34.578329 -107.471247 235 30096ft 282kts
30-Aug-20 20:20 34.523775 -107.547208 235 30105ft 283kts
30-Aug-20 20:21 34.468169 -107.624462 235 30081ft 283kts
30-Aug-20 20:22 34.412359 -107.701830 235 30102ft 284kts
30-Aug-20 20:23 34.355855 -107.779988 235 30106ft 285kts
30-Aug-20 20:24 34.299645 -107.857565 235 30081ft 286kts
30-Aug-20 20:25 34.244414 -107.933625 235 30092ft 285kts
30-Aug-20 20:26 34.188927 -108.009872 235 30136ft 284kts
30-Aug-20 20:27 34.133681 -108.085627 235 30137ft 285kts
30-Aug-20 20:28 34.078324 -108.161368 235 30136ft 285kts
30-Aug-20 20:29 34.022764 -108.237226 235 30082ft 286kts
30-Aug-20 20:30 33.966746 -108.313541 235 30031ft 286kts
30-Aug-20 20:31 33.911213 -108.389033 235 30019ft 285kts
30-Aug-20 20:31 33.865269 -108.451366 235 30048ft 284kts
30-Aug-20 20:33 33.800940 -108.538467 235 30073ft 283kts
30-Aug-20 20:33 33.755014 -108.600518 235 30071ft 283kts
30-Aug-20 20:34 33.699879 -108.674867 234 30080ft 284kts
30-Aug-20 20:36 33.635114 -108.762009 234 30069ft 286kts
30-Aug-20 20:36 33.588793 -108.824200 234 30025ft 287kts
30-Aug-20 20:37 33.532692 -108.899375 234 29970ft 288kts
30-Aug-20 20:38 33.476694 -108.974260 234 29918ft 288kts
30-Aug-20 20:39 33.420578 -109.049150 234 29917ft 286kts
30-Aug-20 20:40 33.364893 -109.123302 233 29916ft 284kts
30-Aug-20 20:41 33.309179 -109.197342 233 29915ft 282kts
30-Aug-20 20:42 33.253538 -109.271116 233 29914ft 281kts
30-Aug-20 20:43 33.198079 -109.344514 233 29914ft 281kts
30-Aug-20 20:44 33.142758 -109.417580 233 29913ft 280kts
30-Aug-20 20:45 33.088075 -109.489685 233 29912ft 281kts
30-Aug-20 20:46 33.032833 -109.562363 232 29912ft 284kts
30-Aug-20 20:47 32.976646 -109.636130 231 29913ft 288kts
30-Aug-20 20:48 32.920130 -109.710128 231 29921ft 293kts
30-Aug-20 20:49 32.862466 -109.785509 230 29919ft 295kts
30-Aug-20 20:50 32.804951 -109.860541 230 29918ft 295kts
30-Aug-20 20:51 32.746899 -109.936123 230 29917ft 295kts
30-Aug-20 20:52 32.687333 -110.013507 230 28470ft 323kts
30-Aug-20 20:53 32.622294 -110.097784 230 25870ft 339kts
30-Aug-20 20:54 32.556022 -110.183487 230 23916ft 326kts
30-Aug-20 20:55 32.496353 -110.260502 231 23923ft 293kts
30-Aug-20 20:56 32.439920 -110.333228 231 23181ft 304kts
30-Aug-20 20:57 32.368628 -110.391487 199 21636ft 328kts
30-Aug-20 20:58 32.284034 -110.421053 199 20040ft 293kts
30-Aug-20 20:59 32.205375 -110.449694 200 18022ft 269kts
30-Aug-20 21:00 32.136705 -110.481620 199 15366ft 244kts
30-Aug-20 21:01 32.077218 -110.521302 236 12702ft 241kts
30-Aug-20 21:02 32.044643 -110.593628 241 10108ft 233kts
30-Aug-20 21:03 32.017690 -110.654760 240 9827ft 193kts
30-Aug-20 21:04 31.992610 -110.711548 240 8558ft 185kts
30-Aug-20 21:05 31.973278 -110.768641 287 6910ft 185kts
30-Aug-20 21:06 32.003176 -110.807033 311 5864ft 136kts
30-Aug-20 21:07 32.032990 -110.841940 312 4527ft 129kts
30-Aug-20 21:08 32.057197 -110.870292 312 3973ft 102kts
30-Aug-20 21:09 32.075983 -110.892318 312 3380ft 89kts
30-Aug-20 21:10 32.094389 -110.913859 313 2927ft 91kts
30-Aug-20 21:11 32.107152 -110.927519 45 2633ft 12kts
30-Aug-20 21:12 32.107210 -110.927453 43 2633ft 0kts
30-Aug-20 21:13 32.108996 -110.928532 314 2629ft 22kts
30-Aug-20 21:14 32.112999 -110.933232 314 2615ft 26kts
30-Aug-20 21:15 32.118696 -110.939898 314 2597ft 26kts
30-Aug-20 21:16 32.124015 -110.946130 315 2575ft 27kts
30-Aug-20 21:17 32.125554 -110.945126 44 2573ft 0kts
30-Aug-20 21:18 32.125554 -110.945126 44 2573ft 0kts

Navigation Log

Ident Type
Flight plan parsing failed, navigation log unavailable